Flight Track Log - Related Links

Times and Time Zones

All times are in EDT time to prevent confusion due to time zone crossing. See the TAM8053 flight status page for this flight to view local times or setup timezone preferences in your user account.

Time Position Orientation Groundspeed Altitude Reporting Facility
EDT Latitude Longitude Course Direction KTS MPH feet Rate Location/Type
Thu 10:30:28 AM 25.7983 -80.2631 79° East 178 205 1,000  Level Miami Center
Thu 10:31:11 AM 25.8056 -80.2217 79° East 184 212 2,800 2,000 Climbing Miami Center
Thu 10:32:19 AM 25.8094 -80.1503 87° East 256 295 4,700 2,178 Climbing Miami Center
Thu 10:33:26 AM 25.8197 -80.0536 83° East 295 339 7,700 2,719 Climbing Miami Center
Thu 10:34:27 AM 25.7986 -79.9700 106° East 283 326 10,500 2,081 Climbing Miami Center
Thu 10:35:30 AM 25.7672 -79.8675 109° East 326 375 12,000 2,000 Climbing Miami Center
Thu 10:36:30 AM 25.7278 -79.7558 111° Southeast 358 412 14,600 2,650 Climbing Miami Center
Thu 10:37:30 AM 25.6861 -79.6442 112° Southeast 374 430 17,300 2,450 Climbing Miami Center
Thu 10:38:30 AM 25.6422 -79.5281 113° Southeast 396 456 19,500 2,100 Climbing Miami Center
Thu 10:39:30 AM 25.6006 -79.4050 111° Southeast 408 470 21,500 1,700 Climbing Miami Center
Thu 10:40:30 AM 25.5547 -79.2772 112° Southeast 425 489 22,900 1,450 Climbing Miami Center
Thu 10:41:30 AM 25.4708 -79.1697 131° Southeast 447 514 24,400 1,600 Climbing Miami Center
Thu 10:42:30 AM 25.3889 -79.0578 129° Southeast 453 521 26,100 1,650 Climbing Miami Center
Thu 10:43:30 AM 25.3028 -78.9483 131° Southeast 464 534 27,700 1,950 Climbing Miami Center
Thu 10:44:30 AM 25.2142 -78.8456 134° Southeast 464 534 30,000 1,900 Climbing Miami Center
Thu 10:45:30 AM 25.1258 -78.7364 132° Southeast 469 540 31,500 1,400 Climbing Miami Center
Thu 10:46:30 AM 25.0394 -78.6250 131° Southeast 474 545 32,800 750 Climbing Miami Center
Thu 10:47:30 AM 24.9531 -78.5136 131° Southeast 474 545 33,000 100 Climbing Miami Center
Thu 10:48:30 AM 24.8664 -78.4050 131° Southeast 474 545 33,000  Level Miami Center
Thu 10:49:30 AM 24.7797 -78.2986 132° Southeast 474 545 33,000  Level Miami Center
Thu 10:50:30 AM 24.6931 -78.1900 131° Southeast 474 545 33,000  Level Miami Center
Thu 10:51:30 AM 24.6039 -78.0794 132° Southeast 474 545 33,000  Level Miami Center
Thu 10:52:30 AM 24.5169 -77.9711 131° Southeast 474 545 33,000  Level Miami Center
Thu 10:53:30 AM 24.4281 -77.8608 132° Southeast 474 545 33,000  Level Miami Center
Thu 10:54:30 AM 24.3408 -77.7531 132° Southeast 474 545 33,000  Level Miami Center
Thu 10:55:30 AM 24.2536 -77.6428 131° Southeast 474 545 33,000  Level Miami Center
Thu 10:56:30 AM 24.1664 -77.5353 132° Southeast 474 545 33,000  Level Miami Center
Thu 10:57:30 AM 24.0811 -77.4303 132° Southeast 474 545 33,000  Level Miami Center
Thu 10:58:30 AM 23.9917 -77.3206 132° Southeast 474 545 33,000  Level Miami Center
Thu 10:59:30 AM 23.9064 -77.2111 130° Southeast 477 549 33,000  Level Miami Center
Thu 11:00:30 AM 23.8231 -77.1111 132° Southeast 467 537 33,000  Level Miami Center
Thu 11:01:30 AM 23.7353 -77.0042 132° Southeast 462 532 33,000  Level Miami Center
Thu 11:02:30 AM 23.6475 -76.8975 132° Southeast 467 537 33,000  Level Miami Center
Thu 11:03:30 AM 23.5597 -76.7886 131° Southeast 467 537 33,000  Level Miami Center
Thu 11:04:30 AM 23.4719 -76.6822 132° Southeast 467 537 33,000  Level Miami Center
Thu 11:05:30 AM 23.3839 -76.5783 133° Southeast 467 537 33,000  Level Miami Center
Thu 11:06:30 AM 23.2961 -76.4697 131° Southeast 467 537 33,000  Level Miami Center
Thu 11:07:30 AM 23.2058 -76.3639 133° Southeast 467 537 33,000  Level Miami Center
Thu 11:08:30 AM 23.1178 -76.2558 132° Southeast 467 537 33,000  Level Miami Center
Thu 11:09:30 AM 23.0272 -76.1500 133° Southeast 467 537 33,000  Level Miami Center
Thu 11:10:30 AM 22.9411 -76.0444 132° Southeast 467 537 33,000  Level Miami Center
Thu 11:11:30 AM 22.8528 -75.9392 132° Southeast 467 537 33,000  Level Miami Center
Thu 11:12:30 AM 22.7622 -75.8317 132° Southeast 467 537 33,000  Level Miami Center
Thu 11:13:30 AM 22.6736 -75.7267 132° Southeast 467 537 33,000  Level Miami Center
Thu 11:14:30 AM 22.5850 -75.6194 132° Southeast 467 537 33,000  Level Miami Center
Thu 11:15:30 AM 22.4944 -75.5144 133° Southeast 472 543 33,000  Level Miami Center
Thu 11:16:30 AM 22.4056 -75.4100 133° Southeast 472 543 33,000  Level Miami Center
Thu 11:17:30 AM 22.3147 -75.3031 133° Southeast 472 543 33,000  Level Miami Center
Thu 11:18:30 AM 22.2261 -75.2033 134° Southeast 472 543 33,000  Level Miami Center
Thu 11:19:30 AM 22.1392 -75.0967 131° Southeast 472 543 33,000  Level Miami Center
Thu 11:20:30 AM 22.0439 -74.9994 137° Southeast 472 543 33,000  Level Miami Center
Thu 11:21:30 AM 21.9425 -74.9025 138° Southeast 472 543 33,000  Level Miami Center
Thu 11:22:30 AM 21.8431 -74.8100 139° Southeast 477 549 33,000  Level Miami Center
Thu 11:23:30 AM 21.7394 -74.7153 140° Southeast 477 549 33,000  Level Miami Center
Thu 11:24:30 AM 21.6525 -74.6253 136° Southeast 483 556 33,000  Level Miami Center
Thu 11:25:30 AM 21.5511 -74.5308 139° Southeast 483 556 33,000  Level Miami Center
Thu 11:26:30 AM 21.4536 -74.4367 138° Southeast 483 556 33,000  Level Miami Center
Thu 11:27:30 AM 21.3517 -74.3428 139° Southeast 483 556 33,000  Level Miami Center
Thu 11:28:30 AM 21.2542 -74.2511 139° Southeast 483 556 33,000  Level Miami Center
Thu 11:29:30 AM 21.1544 -74.1572 139° Southeast 483 556 33,000  Level Miami Center
Thu 11:30:30 AM 21.0547 -74.0636 139° Southeast 483 556 33,000  Level Miami Center
Thu 11:31:30 AM 20.9528 -73.9681 139° Southeast 483 556 33,000  Level Miami Center
Thu 11:32:30 AM 20.8592 -73.8789 138° Southeast 478 550 33,000  Level Miami Center
Thu 11:33:30 AM 20.7531 -73.7836 140° Southeast 478 550 33,000  Level Miami Center
Thu 11:34:30 AM 20.6531 -73.6883 138° Southeast 483 556 33,000  Level Miami Center
Thu 11:35:30 AM 20.5531 -73.5956 139° Southeast 488 562 33,000  Level Miami Center
Thu 11:36:30 AM 20.4508 -73.5006 139° Southeast 488 562 33,000  Level Miami Center
Thu 11:37:30 AM 20.3486 -73.4078 140° Southeast 488 562 33,000  Level Miami Center
Thu 11:38:30 AM 20.2444 -73.3131 140° Southeast 488 562 33,000  Level Miami Center
Thu 11:39:30 AM 20.1336 -73.2122 139° Southeast 488 562 33,000  Level Miami Center
Thu 11:40:30 AM 20.0272 -73.1225 142° Southeast 488 562 33,000  Level Miami Center
Thu 11:42:00 AM 19.8898 -72.9932 142° Southeast  Level FlightAware Approximate
Thu 11:49:00 AM 19.2056 -72.4372 142° Southeast  Level FlightAware Approximate
Thu 11:50:00 AM 19.1077 -72.3581 143° Southeast  Level FlightAware Approximate
Thu 11:51:00 AM 19.0098 -72.2792 143° Southeast  Level FlightAware Approximate
Thu 11:52:00 AM 18.9118 -72.2003 143° Southeast  Level FlightAware Approximate
Thu 11:53:00 AM 18.8138 -72.1215 143° Southeast  Level FlightAware Approximate
Thu 11:54:00 AM 18.7158 -72.0428 143° Southeast  Level FlightAware Approximate
Thu 11:55:00 AM 18.6178 -71.9642 143° Southeast  Level FlightAware Approximate
Thu 11:56:00 AM 18.5268 -71.8768 137° Southeast  Level FlightAware Approximate
Thu 11:57:00 AM 18.4258 -71.8030 146° Southeast  Level FlightAware Approximate
Thu 11:58:00 AM 18.3238 -71.7303 145° Southeast  Level FlightAware Approximate
Thu 11:59:00 AM 18.2241 -71.6543 144° Southeast  Level FlightAware Approximate
Thu 11:59:31 AM 18.0350 -71.4790 144° Southeast 474 545 33,000  Level FlightAware ADS-B
Thu 12:00:10 PM 17.9790 -71.4120 131° Southeast 473 544 33,000  Level FlightAware ADS-B
Thu 12:00:50 PM 17.9320 -71.3560 131° Southeast 474 545 33,000  Level FlightAware ADS-B
Thu 12:02:06 PM 17.8220 -71.2240 131° Southeast 472 543 33,000  Level FlightAware ADS-B
Thu 12:02:43 PM 17.7760 -71.1690 131° Southeast 472 543 33,000  Level FlightAware ADS-B
Thu 12:03:28 PM 17.7220 -71.1030 131° Southeast 472 543 33,000  Level FlightAware ADS-B
Thu 12:04:05 PM 17.6770 -71.0490 131° Southeast 472 543 33,000  Level FlightAware ADS-B
Thu 12:04:54 PM 17.6170 -70.9770 131° Southeast 472 543 33,000  Level FlightAware ADS-B
Thu 12:05:30 PM 17.5730 -70.9240 131° Southeast 472 543 33,000  Level FlightAware ADS-B
Thu 12:06:13 PM 17.5210 -70.8610 131° Southeast 472 543 33,000  Level FlightAware ADS-B
Thu 12:06:51 PM 17.4740 -70.8050 131° Southeast 472 543 33,000  Level FlightAware ADS-B
Thu 12:07:39 PM 17.4160 -70.7340 131° Southeast 472 543 33,000  Level FlightAware ADS-B
Thu 12:08:25 PM 17.3600 -70.6670 131° Southeast 472 543 33,000  Level FlightAware ADS-B
Thu 12:09:03 PM 17.3140 -70.6110 131° Southeast 472 543 33,000  Level FlightAware ADS-B
Thu 12:09:39 PM 17.2700 -70.5580 131° Southeast 472 543 33,000  Level FlightAware ADS-B
Thu 12:10:26 PM 17.2130 -70.4890 131° Southeast 472 543 33,000  Level FlightAware ADS-B
Thu 12:11:38 PM 16.8860 -70.3490 158° South 484 557 33,000  Level FlightAware ADS-B
Thu 12:12:21 PM 16.8130 -70.3120 154° Southeast 484 557 33,000  Level FlightAware ADS-B
Thu 12:13:00 PM 16.7460 -70.2780 154° Southeast 484 557 33,000  Level FlightAware ADS-B
Thu 12:13:41 PM 16.6760 -70.2430 154° Southeast 484 557 33,000  Level FlightAware ADS-B
Thu 12:14:18 PM 16.6130 -70.2100 153° Southeast 484 557 33,000  Level FlightAware ADS-B
Thu 12:15:06 PM 16.5310 -70.1690 154° Southeast 484 557 33,000  Level FlightAware ADS-B
Thu 12:15:47 PM 16.4610 -70.1330 154° Southeast 484 557 33,000  Level FlightAware ADS-B
Thu 12:16:33 PM 16.3820 -70.0930 154° Southeast 484 557 33,000  Level FlightAware ADS-B
Thu 12:17:11 PM 16.3170 -70.0600 154° Southeast 484 557 33,000  Level FlightAware ADS-B
Thu 12:17:48 PM 16.2540 -70.0280 154° Southeast 484 557 33,000  Level FlightAware ADS-B
Thu 12:18:36 PM 16.1720 -69.9860 154° Southeast 484 557 33,000  Level FlightAware ADS-B
Thu 12:19:12 PM 16.1100 -69.9550 154° Southeast 484 557 33,000  Level FlightAware ADS-B
Thu 12:19:47 PM 16.0500 -69.9240 154° Southeast 484 557 33,000  Level FlightAware ADS-B
Thu 12:20:51 PM 15.9410 -69.8690 154° Southeast 484 557 33,000  Level FlightAware ADS-B
Thu 12:21:40 PM 15.8570 -69.8260 154° Southeast 484 557 33,000  Level FlightAware ADS-B
Thu 12:24:00 PM 15.6215 -69.6551 145° Southeast  Level FlightAware Approximate
Thu 12:24:54 PM 15.3750 -69.4570 145° Southeast 470 541 33,000  Level FlightAware ADS-B
Thu 12:25:00 PM 15.5205 -69.5819 145° Southeast  Level FlightAware Approximate
Thu 12:26:17 PM 15.2500 -69.3630 144° Southeast 470 541 33,000  Level FlightAware ADS-B
Thu 12:26:51 PM 15.2000 -69.3250 144° Southeast 470 541 33,000  Level FlightAware ADS-B
Thu 12:27:41 PM 15.1250 -69.2690 144° Southeast 470 541 33,000  Level FlightAware ADS-B
Thu 12:28:17 PM 15.0710 -69.2280 144° Southeast 470 541 33,000  Level FlightAware ADS-B
Thu 12:29:17 PM 14.9810 -69.1610 144° Southeast 470 541 33,000  Level FlightAware ADS-B
Thu 12:29:55 PM 14.9240 -69.1180 144° Southeast 470 541 33,000  Level FlightAware ADS-B
Thu 12:30:37 PM 14.8620 -69.0710 144° Southeast 470 541 33,000  Level FlightAware ADS-B
Thu 12:31:24 PM 14.7910 -69.0180 144° Southeast 470 541 33,000  Level FlightAware ADS-B
Thu 12:32:00 PM 14.7380 -68.9780 144° Southeast 470 541 33,000  Level FlightAware ADS-B
Thu 12:32:49 PM 14.6640 -68.9230 144° Southeast 470 541 33,000  Level FlightAware ADS-B
Thu 12:33:25 PM 14.6100 -68.8820 144° Southeast 470 541 33,000  Level FlightAware ADS-B
Thu 12:34:13 PM 14.5390 -68.8280 144° Southeast 470 541 33,000  Level FlightAware ADS-B
Thu 12:34:48 PM 14.4860 -68.7890 145° Southeast 470 541 33,000  Level FlightAware ADS-B
Thu 12:36:44 PM 14.1120 -68.5430 147° Southeast 465 535 33,000  Level FlightAware ADS-B
Thu 12:37:25 PM 14.0450 -68.4940 145° Southeast 465 535 33,000  Level FlightAware ADS-B
Thu 12:38:10 PM 13.9580 -68.4320 145° Southeast 463 533 33,000  Level FlightAware ADS-B
Thu 12:38:54 PM 13.8800 -68.3760 145° Southeast 463 533 33,000  Level FlightAware ADS-B
Thu 12:39:28 PM 13.8210 -68.3340 145° Southeast 464 534 33,000  Level FlightAware ADS-B
Thu 12:40:18 PM 13.7320 -68.2700 145° Southeast 465 535 33,000  Level FlightAware ADS-B
Thu 12:41:14 PM 13.6430 -68.2070 145° Southeast 465 535 33,000  Level FlightAware ADS-B
Thu 12:42:12 PM 13.5310 -68.1270 145° Southeast 466 536 33,000  Level FlightAware ADS-B
Thu 12:42:52 PM 13.4590 -68.0750 145° Southeast 466 536 33,000  Level FlightAware ADS-B
Thu 12:43:28 PM 13.3940 -68.0290 145° Southeast 467 537 33,000  Level FlightAware ADS-B
Thu 12:44:14 PM 13.3130 -67.9710 145° Southeast 468 539 33,000  Level FlightAware ADS-B
Thu 12:44:56 PM 13.2400 -67.9190 145° Southeast 468 539 33,000  Level FlightAware ADS-B
Thu 12:45:35 PM 13.1890 -67.8830 145° Southeast 468 539 33,000  Level FlightAware ADS-B
Thu 12:46:21 PM 13.1250 -67.8370 145° Southeast 469 540 33,000  Level FlightAware ADS-B
Thu 12:47:00 PM 13.0180 -67.7610 145° Southeast 468 539 33,000  Level FlightAware ADS-B
Thu 12:47:46 PM 12.9360 -67.7030 145° Southeast 468 539 33,000 628 Level FlightAware ADS-B
Thu 12:48:26 PM 12.8640 -67.6520 145° Southeast 464 534 33,900 1,390 Climbing FlightAware ADS-B
Thu 12:49:08 PM 12.7900 -67.5990 145° Southeast 462 532 34,900 786 Climbing FlightAware ADS-B
Thu 12:49:50 PM 12.7240 -67.5530 146° Southeast 460 529 35,000 91 Climbing FlightAware ADS-B
Thu 12:50:14 PM 12.6740 -67.5180 146° Southeast 460 529 35,000  Level FlightAware ADS-B
Thu 12:51:10 PM 12.5750 -67.4480 145° Southeast 462 532 35,000  Level FlightAware ADS-B
Thu 12:51:46 PM 12.5110 -67.4030 146° Southeast 461 531 35,000  Level FlightAware ADS-B
Thu 12:52:34 PM 12.4270 -67.3450 146° Southeast 462 532 35,000  Level FlightAware ADS-B
Thu 12:53:14 PM 12.3560 -67.2950 145° Southeast 462 532 35,000  Level FlightAware ADS-B
Thu 12:54:00 PM 12.2740 -67.2370 145° Southeast 462 532 35,000  Level FlightAware ADS-B
Thu 12:54:44 PM 12.1970 -67.1830 146° Southeast 462 532 35,000  Level FlightAware ADS-B
Thu 12:55:16 PM 12.1400 -67.1440 146° Southeast 461 531 35,000  Level FlightAware ADS-B
Thu 12:56:05 PM 12.0550 -67.0840 145° Southeast 461 531 35,000  Level FlightAware ADS-B
Thu 12:56:40 PM 11.9940 -67.0410 145° Southeast 461 531 35,000  Level FlightAware ADS-B
Thu 12:57:45 PM 11.8970 -66.9720 145° Southeast 461 531 35,000  Level FlightAware ADS-B
Thu 12:58:21 PM 11.8440 -66.9340 145° Southeast 461 531 35,000  Level FlightAware ADS-B
Thu 12:59:11 PM 11.7700 -66.8810 145° Southeast 461 531 35,000  Level FlightAware ADS-B
Thu 12:59:46 PM 11.7180 -66.8430 144° Southeast 461 531 35,000  Level FlightAware ADS-B
Thu 01:00:40 PM 11.6370 -66.7860 145° Southeast 461 531 35,000  Level FlightAware ADS-B
Thu 01:01:28 PM 11.5660 -66.7350 145° Southeast 461 531 35,000  Level FlightAware ADS-B
Thu 01:02:04 PM 11.5130 -66.6970 145° Southeast 461 531 35,000  Level FlightAware ADS-B
Thu 01:02:53 PM 11.4400 -66.6450 145° Southeast 461 531 35,000  Level FlightAware ADS-B
Thu 01:03:29 PM 11.3870 -66.6070 145° Southeast 461 531 35,000  Level FlightAware ADS-B
Thu 01:04:31 PM 11.2940 -66.5410 145° Southeast 461 531 35,000  Level FlightAware ADS-B
Thu 01:05:06 PM 11.2420 -66.5040 145° Southeast 461 531 35,000  Level FlightAware ADS-B
Thu 01:05:55 PM 11.1700 -66.4520 145° Southeast 461 531 35,000  Level FlightAware ADS-B
Thu 01:06:31 PM 11.1160 -66.4140 145° Southeast 461 531 35,000 18 Level FlightAware ADS-B
Thu 01:09:00 PM 10.8653 -66.2357 145° Southeast  Level FlightAware Approximate
Thu 01:10:00 PM 10.7643 -66.1640 145° Southeast  Level FlightAware Approximate
Thu 01:11:00 PM 10.6633 -66.0924 145° Southeast  Level FlightAware Approximate
Thu 01:12:00 PM 10.5622 -66.0208 145° Southeast  Level FlightAware Approximate
Thu 01:13:00 PM 10.4612 -65.9492 145° Southeast  Level FlightAware Approximate
Thu 01:14:00 PM 10.3601 -65.8777 145° Southeast  Level FlightAware Approximate
Thu 01:15:00 PM 10.2591 -65.8063 145° Southeast  Level FlightAware Approximate
Thu 01:16:00 PM 10.1580 -65.7349 145° Southeast  Level FlightAware Approximate
Thu 01:17:00 PM 10.0569 -65.6635 145° Southeast  Level FlightAware Approximate
Thu 01:18:00 PM 9.9558 -65.5922 145° Southeast  Level FlightAware Approximate
Thu 01:19:00 PM 9.8546 -65.5209 145° Southeast  Level FlightAware Approximate
Thu 01:20:00 PM 9.7535 -65.4497 145° Southeast  Level FlightAware Approximate
Thu 01:21:00 PM 9.6523 -65.3785 145° Southeast  Level FlightAware Approximate
Thu 01:22:00 PM 9.5511 -65.3073 145° Southeast  Level FlightAware Approximate
Thu 01:23:00 PM 9.4499 -65.2362 145° Southeast  Level FlightAware Approximate
Thu 01:24:00 PM 9.3487 -65.1651 145° Southeast  Level FlightAware Approximate
Thu 01:25:00 PM 9.2475 -65.0941 145° Southeast  Level FlightAware Approximate
Thu 01:26:00 PM 9.1463 -65.0231 145° Southeast  Level FlightAware Approximate
Thu 01:27:00 PM 9.0450 -64.9522 145° Southeast  Level FlightAware Approximate
Thu 01:28:00 PM 8.9438 -64.8813 145° Southeast  Level FlightAware Approximate
Thu 01:29:00 PM 8.8425 -64.8104 145° Southeast  Level FlightAware Approximate
Thu 01:30:00 PM 8.7412 -64.7396 145° Southeast  Level FlightAware Approximate
Thu 01:31:00 PM 8.6399 -64.6688 145° Southeast  Level FlightAware Approximate
Thu 01:32:00 PM 8.5386 -64.5981 145° Southeast  Level FlightAware Approximate
Thu 01:33:00 PM 8.4372 -64.5274 145° Southeast  Level FlightAware Approximate
Thu 01:34:00 PM 8.3359 -64.4567 145° Southeast  Level FlightAware Approximate
Thu 01:35:00 PM 8.2345 -64.3860 145° Southeast  Level FlightAware Approximate
Thu 01:36:00 PM 8.1332 -64.3154 145° Southeast  Level FlightAware Approximate
Thu 01:37:00 PM 8.0318 -64.2449 145° Southeast  Level FlightAware Approximate
Thu 01:38:00 PM 7.9304 -64.1743 145° Southeast  Level FlightAware Approximate
Thu 01:39:00 PM 7.8290 -64.1038 145° Southeast  Level FlightAware Approximate
Thu 01:40:00 PM 7.7276 -64.0334 145° Southeast  Level FlightAware Approximate
Thu 01:41:00 PM 7.6262 -63.9630 145° Southeast  Level FlightAware Approximate
Thu 01:42:00 PM 7.5247 -63.8926 145° Southeast  Level FlightAware Approximate
Thu 01:43:00 PM 7.4233 -63.8222 145° Southeast  Level FlightAware Approximate
Thu 01:44:00 PM 7.3218 -63.7519 145° Southeast  Level FlightAware Approximate
Thu 01:45:00 PM 7.2203 -63.6816 145° Southeast  Level FlightAware Approximate
Thu 01:46:00 PM 7.1189 -63.6113 146° Southeast  Level FlightAware Approximate
Thu 01:47:00 PM 7.0174 -63.5411 146° Southeast  Level FlightAware Approximate
Thu 01:48:00 PM 6.9159 -63.4709 146° Southeast  Level FlightAware Approximate
Thu 01:49:00 PM 6.8144 -63.4007 146° Southeast  Level FlightAware Approximate
Thu 01:50:00 PM 6.7128 -63.3306 146° Southeast  Level FlightAware Approximate
Thu 01:51:00 PM 6.6113 -63.2604 146° Southeast  Level FlightAware Approximate
Thu 01:52:00 PM 6.5098 -63.1904 146° Southeast  Level FlightAware Approximate
Thu 01:53:00 PM 6.4082 -63.1203 146° Southeast  Level FlightAware Approximate
Thu 01:54:00 PM 6.3067 -63.0503 146° Southeast  Level FlightAware Approximate
Thu 01:55:00 PM 6.2051 -62.9803 146° Southeast  Level FlightAware Approximate
Thu 01:56:00 PM 6.1035 -62.9103 146° Southeast  Level FlightAware Approximate
Thu 01:57:00 PM 6.0019 -62.8403 146° Southeast  Level FlightAware Approximate
Thu 01:58:00 PM 5.9003 -62.7704 146° Southeast  Level FlightAware Approximate
Thu 01:59:00 PM 5.7987 -62.7005 146° Southeast  Level FlightAware Approximate
Thu 02:00:00 PM 5.6971 -62.6306 146° Southeast  Level FlightAware Approximate
Thu 02:01:00 PM 5.5955 -62.5608 146° Southeast  Level FlightAware Approximate
Thu 02:02:00 PM 5.4938 -62.4910 146° Southeast  Level FlightAware Approximate
Thu 02:03:00 PM 5.3922 -62.4212 146° Southeast  Level FlightAware Approximate
Thu 02:04:00 PM 5.2906 -62.3514 146° Southeast  Level FlightAware Approximate
Thu 02:05:00 PM 5.1889 -62.2817 146° Southeast  Level FlightAware Approximate
Thu 02:06:00 PM 5.0872 -62.2119 146° Southeast  Level FlightAware Approximate
Thu 02:07:00 PM 4.9856 -62.1422 146° Southeast  Level FlightAware Approximate
Thu 02:08:00 PM 4.8839 -62.0725 146° Southeast  Level FlightAware Approximate
Thu 02:09:00 PM 4.7822 -62.0029 146° Southeast  Level FlightAware Approximate
Thu 02:10:00 PM 4.6805 -61.9332 146° Southeast  Level FlightAware Approximate
Thu 02:11:00 PM 4.5788 -61.8636 146° Southeast  Level FlightAware Approximate
Thu 02:12:00 PM 4.4771 -61.7940 146° Southeast  Level FlightAware Approximate
Thu 02:13:00 PM 4.3754 -61.7244 146° Southeast  Level FlightAware Approximate
Thu 02:14:00 PM 4.2737 -61.6548 146° Southeast  Level FlightAware Approximate
Thu 02:15:00 PM 4.1719 -61.5853 146° Southeast  Level FlightAware Approximate
Thu 02:16:00 PM 4.0702 -61.5158 146° Southeast  Level FlightAware Approximate
Thu 02:17:00 PM 3.9685 -61.4463 146° Southeast  Level FlightAware Approximate
Thu 02:18:00 PM 3.8667 -61.3768 146° Southeast  Level FlightAware Approximate
Thu 02:19:00 PM 3.7650 -61.3073 146° Southeast  Level FlightAware Approximate
Thu 02:20:00 PM 3.6632 -61.2378 146° Southeast  Level FlightAware Approximate
Thu 02:21:00 PM 3.5615 -61.1684 146° Southeast  Level FlightAware Approximate
Thu 02:22:00 PM 3.4597 -61.0989 146° Southeast  Level FlightAware Approximate
Thu 02:23:00 PM 3.3579 -61.0295 146° Southeast  Level FlightAware Approximate
Thu 02:24:00 PM 3.2561 -60.9601 146° Southeast  Level FlightAware Approximate
Thu 02:25:00 PM 3.1544 -60.8907 146° Southeast  Level FlightAware Approximate
Thu 02:26:00 PM 3.0526 -60.8214 146° Southeast  Level FlightAware Approximate
Thu 02:27:00 PM 2.9508 -60.7520 146° Southeast  Level FlightAware Approximate
Thu 02:28:00 PM 2.8490 -60.6826 144° Southeast  Level FlightAware Approximate
Thu 02:29:00 PM 2.7491 -60.6105 144° Southeast  Level FlightAware Approximate
Thu 02:30:00 PM 2.6492 -60.5385 144° Southeast  Level FlightAware Approximate
Thu 02:31:00 PM 2.5493 -60.4664 144° Southeast  Level FlightAware Approximate
Thu 02:32:00 PM 2.4494 -60.3944 144° Southeast  Level FlightAware Approximate
Thu 02:33:00 PM 2.3495 -60.3224 144° Southeast  Level FlightAware Approximate
Thu 02:34:00 PM 2.2496 -60.2504 144° Southeast  Level FlightAware Approximate
Thu 02:35:00 PM 2.1497 -60.1784 144° Southeast  Level FlightAware Approximate
Thu 02:36:00 PM 2.0494 -60.1068 145° Southeast  Level FlightAware Approximate
Thu 02:37:00 PM 1.9491 -60.0354 145° Southeast  Level FlightAware Approximate
Thu 02:38:00 PM 1.8489 -59.9639 145° Southeast  Level FlightAware Approximate
Thu 02:39:00 PM 1.7486 -59.8924 145° Southeast  Level FlightAware Approximate
Thu 02:40:00 PM 1.6483 -59.8210 145° Southeast  Level FlightAware Approximate
Thu 02:41:00 PM 1.5480 -59.7495 145° Southeast  Level FlightAware Approximate
Thu 02:42:00 PM 1.4477 -59.6781 145° Southeast  Level FlightAware Approximate
Thu 02:43:00 PM 1.3474 -59.6067 145° Southeast  Level FlightAware Approximate
Thu 02:44:00 PM 1.2471 -59.5352 145° Southeast  Level FlightAware Approximate
Thu 02:45:00 PM 1.1468 -59.4638 145° Southeast  Level FlightAware Approximate
Thu 02:46:00 PM 1.0465 -59.3924 145° Southeast  Level FlightAware Approximate
Thu 02:47:00 PM 0.9462 -59.3210 145° Southeast  Level FlightAware Approximate
Thu 02:48:00 PM 0.8459 -59.2495 145° Southeast  Level FlightAware Approximate
Thu 02:49:00 PM 0.7456 -59.1781 145° Southeast  Level FlightAware Approximate
Thu 02:50:00 PM 0.6453 -59.1067 145° Southeast  Level FlightAware Approximate
Thu 02:51:00 PM 0.5450 -59.0353 145° Southeast  Level FlightAware Approximate
Thu 02:52:00 PM 0.4447 -58.9639 145° Southeast  Level FlightAware Approximate
Thu 02:53:00 PM 0.3444 -58.8925 145° Southeast  Level FlightAware Approximate
Thu 02:54:00 PM 0.2441 -58.8211 145° Southeast  Level FlightAware Approximate
Thu 02:55:00 PM 0.1438 -58.7497 145° Southeast  Level FlightAware Approximate
Thu 02:56:00 PM 0.0435 -58.6784 145° Southeast  Level FlightAware Approximate
Thu 02:57:00 PM -0.0568 -58.6070 145° Southeast  Level FlightAware Approximate
Thu 02:58:00 PM -0.1572 -58.5356 145° Southeast  Level FlightAware Approximate
Thu 02:58:04 PM -1.2470 -58.6420 145° Southeast 453 521 37,000  Level FlightAware ADS-B
Thu 02:58:47 PM -1.3230 -58.6020 152° Southeast 453 521 37,000  Level FlightAware ADS-B
Thu 02:59:45 PM -1.4300 -58.5490 154° Southeast 454 522 37,000  Level FlightAware ADS-B
Thu 03:00:19 PM -1.4840 -58.5210 153° Southeast 454 522 37,000  Level FlightAware ADS-B
Thu 03:01:04 PM -1.5560 -58.4850 153° Southeast 454 522 37,000  Level FlightAware ADS-B
Thu 03:01:51 PM -1.6300 -58.4470 153° Southeast 454 522 37,000  Level FlightAware ADS-B
Thu 03:02:27 PM -1.7420 -58.3910 153° Southeast 456 525 37,000  Level FlightAware ADS-B
Thu 03:03:16 PM -1.8200 -58.3510 153° Southeast 456 525 37,000  Level FlightAware ADS-B
Thu 03:03:50 PM -1.8740 -58.3240 153° Southeast 456 525 37,000  Level FlightAware ADS-B
Thu 03:04:30 PM -1.9380 -58.2910 153° Southeast 456 525 37,000  Level FlightAware ADS-B
Thu 03:05:19 PM -2.0160 -58.2510 153° Southeast 456 525 37,000  Level FlightAware ADS-B
Thu 03:05:56 PM -2.0760 -58.2210 153° Southeast 456 525 37,000  Level FlightAware ADS-B
Thu 03:06:46 PM -2.1550 -58.1800 153° Southeast 456 525 37,000  Level FlightAware ADS-B
Thu 03:07:20 PM -2.2100 -58.1530 154° Southeast 456 525 37,000  Level FlightAware ADS-B
Thu 03:08:11 PM -2.2910 -58.1110 153° Southeast 456 525 37,000  Level FlightAware ADS-B
Thu 03:08:50 PM -2.3540 -58.0790 153° Southeast 456 525 37,000  Level FlightAware ADS-B
Thu 03:09:50 PM -2.4490 -58.0300 153° Southeast 456 525 37,000  Level FlightAware ADS-B
Thu 03:10:27 PM -2.5090 -58.0000 153° Southeast 456 525 37,000  Level FlightAware ADS-B
Thu 03:11:36 PM -2.6190 -57.9440 153° Southeast 456 525 37,000  Level FlightAware ADS-B
Thu 03:12:21 PM -2.6910 -57.9070 153° Southeast 456 525 37,000  Level FlightAware ADS-B
Thu 03:14:00 PM -2.8516 -57.7824 142° Southeast  Level Estimated
Thu 03:15:00 PM -2.9489 -57.7069 142° Southeast  Level Estimated
Thu 03:16:00 PM -3.0462 -57.6313 142° Southeast  Level Estimated
Thu 03:17:00 PM -3.1435 -57.5558 142° Southeast  Level Estimated
Thu 03:18:00 PM -3.2407 -57.4802 142° Southeast  Level Estimated
Thu 03:19:00 PM -3.3380 -57.4046 142° Southeast  Level Estimated
Thu 03:20:00 PM -3.4353 -57.3290 142° Southeast  Level Estimated
Thu 03:21:00 PM -3.5326 -57.2534 142° Southeast  Level Estimated
Thu 03:22:00 PM -3.6298 -57.1777 142° Southeast  Level Estimated
Thu 03:23:00 PM -3.7271 -57.1021 142° Southeast  Level Estimated
Thu 03:24:00 PM -3.8244 -57.0264 142° Southeast  Level Estimated
Thu 03:25:00 PM -3.9216 -56.9507 142° Southeast  Level Estimated
Thu 03:26:00 PM -4.0188 -56.8750 142° Southeast  Level Estimated
Thu 03:27:00 PM -4.1161 -56.7993 142° Southeast  Level Estimated
Thu 03:28:00 PM -4.2133 -56.7236 142° Southeast  Level Estimated
Thu 03:29:00 PM -4.3105 -56.6478 142° Southeast  Level Estimated
Thu 03:30:00 PM -4.4077 -56.5720 142° Southeast  Level Estimated
Thu 03:31:00 PM -4.5049 -56.4962 142° Southeast  Level Estimated
Thu 03:32:00 PM -4.6021 -56.4204 142° Southeast  Level Estimated
Thu 03:33:00 PM -4.6993 -56.3446 142° Southeast  Level Estimated
Thu 03:34:00 PM -4.7965 -56.2687 142° Southeast  Level Estimated
Thu 03:35:00 PM -4.8937 -56.1928 142° Southeast  Level Estimated
Thu 03:36:00 PM -4.9908 -56.1169 142° Southeast  Level Estimated
Thu 03:37:00 PM -5.0880 -56.0410 142° Southeast  Level Estimated
Thu 03:38:00 PM -5.1851 -55.9650 142° Southeast  Level Estimated
Thu 03:39:00 PM -5.2822 -55.8891 142° Southeast  Level Estimated
Thu 03:40:00 PM -5.3794 -55.8131 142° Southeast  Level Estimated
Thu 03:41:00 PM -5.4765 -55.7371 142° Southeast  Level Estimated
Thu 03:42:00 PM -5.5736 -55.6610 142° Southeast  Level Estimated
Thu 03:43:00 PM -5.6707 -55.5849 142° Southeast  Level Estimated
Thu 03:44:00 PM -5.7678 -55.5088 142° Southeast  Level Estimated
Thu 03:45:00 PM -5.8649 -55.4327 142° Southeast  Level Estimated
Thu 03:46:00 PM -5.9619 -55.3566 142° Southeast  Level Estimated
Thu 03:47:00 PM -6.0590 -55.2804 142° Southeast  Level Estimated
Thu 03:48:00 PM -6.1560 -55.2042 142° Southeast  Level Estimated
Thu 03:49:00 PM -6.2531 -55.1280 142° Southeast  Level Estimated
Thu 03:50:00 PM -6.3501 -55.0517 142° Southeast  Level Estimated
Thu 03:51:00 PM -6.4471 -54.9754 142° Southeast  Level Estimated
Thu 03:52:00 PM -6.5441 -54.8991 142° Southeast  Level Estimated
Thu 03:53:00 PM -6.6411 -54.8227 142° Southeast  Level Estimated
Thu 03:54:00 PM -6.7381 -54.7464 142° Southeast  Level Estimated
Thu 03:55:00 PM -6.8350 -54.6699 142° Southeast  Level Estimated
Thu 03:56:00 PM -6.9320 -54.5935 142° Southeast  Level Estimated
Thu 03:57:00 PM -7.0289 -54.5170 142° Southeast  Level Estimated
Thu 03:58:00 PM -7.1259 -54.4405 142° Southeast  Level Estimated
Thu 03:59:00 PM -7.2228 -54.3640 142° Southeast  Level Estimated
Thu 04:00:00 PM -7.3197 -54.2874 142° Southeast  Level Estimated
Thu 04:01:00 PM -7.4166 -54.2108 142° Southeast  Level Estimated
Thu 04:02:00 PM -7.5135 -54.1342 142° Southeast  Level Estimated
Thu 04:03:00 PM -7.6103 -54.0575 142° Southeast  Level Estimated
Thu 04:04:00 PM -7.7072 -53.9808 142° Southeast  Level Estimated
Thu 04:05:00 PM -7.8040 -53.9041 142° Southeast  Level Estimated
Thu 04:06:00 PM -7.9008 -53.8273 142° Southeast  Level Estimated
Thu 04:07:00 PM -7.9976 -53.7505 142° Southeast  Level Estimated
Thu 04:08:00 PM -8.0944 -53.6737 142° Southeast  Level Estimated
Thu 04:09:00 PM -8.1912 -53.5968 142° Southeast  Level Estimated
Thu 04:10:00 PM -8.2880 -53.5199 142° Southeast  Level Estimated
Thu 04:11:00 PM -8.3847 -53.4429 142° Southeast  Level Estimated
Thu 04:12:00 PM -8.4815 -53.3659 142° Southeast  Level Estimated
Thu 04:13:00 PM -8.5782 -53.2889 142° Southeast  Level Estimated
Thu 04:14:00 PM -8.6749 -53.2118 142° Southeast  Level Estimated
Thu 04:15:00 PM -8.7716 -53.1347 142° Southeast  Level Estimated
Thu 04:16:00 PM -8.8683 -53.0575 142° Southeast  Level Estimated
Thu 04:17:00 PM -8.9649 -52.9804 142° Southeast  Level Estimated
Thu 04:18:00 PM -9.0616 -52.9031 142° Southeast  Level Estimated
Thu 04:19:00 PM -9.1582 -52.8258 142° Southeast  Level Estimated
Thu 04:20:00 PM -9.2548 -52.7485 142° Southeast  Level Estimated
Thu 04:21:00 PM -9.3514 -52.6712 142° Southeast  Level Estimated
Thu 04:22:00 PM -9.4480 -52.5938 142° Southeast  Level Estimated
Thu 04:23:00 PM -9.5445 -52.5163 142° Southeast  Level Estimated
Thu 04:24:00 PM -9.6411 -52.4388 142° Southeast  Level Estimated
Thu 04:25:00 PM -9.7376 -52.3613 142° Southeast  Level Estimated
Thu 04:26:00 PM -9.8341 -52.2837 142° Southeast  Level Estimated
Thu 04:27:00 PM -9.9306 -52.2061 142° Southeast  Level Estimated
Thu 04:28:00 PM -10.0271 -52.1284 142° Southeast  Level Estimated
Thu 04:29:00 PM -10.1235 -52.0507 142° Southeast  Level Estimated
Thu 04:30:00 PM -10.2200 -51.9729 142° Southeast  Level Estimated
Thu 04:31:00 PM -10.3164 -51.8951 142° Southeast  Level Estimated
Thu 04:32:00 PM -10.4128 -51.8172 142° Southeast  Level Estimated
Thu 04:33:00 PM -10.5092 -51.7393 142° Southeast  Level Estimated
Thu 04:34:00 PM -10.6055 -51.6614 142° Southeast  Level Estimated
Thu 04:35:00 PM -10.7019 -51.5834 141° Southeast  Level Estimated
Thu 04:36:00 PM -10.7982 -51.5053 141° Southeast  Level Estimated
Thu 04:37:00 PM -10.8945 -51.4272 141° Southeast  Level Estimated
Thu 04:38:00 PM -10.9908 -51.3490 141° Southeast  Level Estimated
Thu 04:39:00 PM -11.0870 -51.2708 141° Southeast  Level Estimated
Thu 04:40:00 PM -11.1833 -51.1926 141° Southeast  Level Estimated
Thu 04:41:00 PM -11.2795 -51.1142 141° Southeast  Level Estimated
Thu 04:42:00 PM -11.3757 -51.0359 141° Southeast  Level Estimated
Thu 04:43:00 PM -11.4719 -50.9575 141° Southeast  Level Estimated
Thu 04:44:00 PM -11.5680 -50.8790 141° Southeast  Level Estimated
Thu 04:45:00 PM -11.6642 -50.8005 141° Southeast  Level Estimated
Thu 04:46:00 PM -11.7603 -50.7219 141° Southeast  Level Estimated
Thu 04:47:00 PM -11.8564 -50.6433 141° Southeast  Level Estimated
Thu 04:48:00 PM -11.9525 -50.5646 141° Southeast  Level Estimated
Thu 04:49:00 PM -12.0485 -50.4858 141° Southeast  Level Estimated
Thu 04:50:00 PM -12.1446 -50.4070 141° Southeast  Level Estimated
Thu 04:51:00 PM -12.2406 -50.3282 141° Southeast  Level Estimated
Thu 04:52:00 PM -12.3365 -50.2493 141° Southeast  Level Estimated
Thu 04:53:00 PM -12.4325 -50.1703 141° Southeast  Level Estimated
Thu 04:54:00 PM -12.5285 -50.0913 141° Southeast  Level Estimated
Thu 04:55:00 PM -12.6244 -50.0122 141° Southeast  Level Estimated
Thu 04:56:00 PM -12.7203 -49.9330 141° Southeast  Level Estimated
Thu 04:57:00 PM -12.8161 -49.8538 141° Southeast  Level Estimated
Thu 04:58:00 PM -12.9120 -49.7745 141° Southeast  Level Estimated
Thu 04:59:00 PM -13.0078 -49.6952 141° Southeast  Level Estimated
Thu 05:00:00 PM -13.1036 -49.6158 141° Southeast  Level Estimated
Thu 05:01:00 PM -13.1994 -49.5364 141° Southeast  Level Estimated
Thu 05:02:00 PM -13.2951 -49.4568 141° Southeast  Level Estimated
Thu 05:03:00 PM -13.3909 -49.3773 141° Southeast  Level Estimated
Thu 05:04:00 PM -13.4866 -49.2976 141° Southeast  Level Estimated
Thu 05:05:00 PM -13.5822 -49.2179 141° Southeast  Level Estimated
Thu 05:06:00 PM -13.6779 -49.1381 141° Southeast  Level Estimated
Thu 05:07:00 PM -13.7735 -49.0583 141° Southeast  Level Estimated
Thu 05:07:41 PM -14.7500 -49.1740 141° Southeast 473 544 37,000  Level FlightAware ADS-B
Thu 05:08:00 PM -13.8691 -48.9784 141° Southeast  Level Estimated
Thu 05:08:22 PM -14.8180 -49.1090 137° Southeast 474 545 37,000  Level FlightAware ADS-B
Thu 05:09:02 PM -14.8830 -49.0480 138° Southeast 474 545 37,000  Level FlightAware ADS-B
Thu 05:09:46 PM -14.9550 -48.9790 137° Southeast 475 547 37,000  Level FlightAware ADS-B
Thu 05:10:30 PM -15.0270 -48.9100 137° Southeast 476 548 37,000  Level FlightAware ADS-B
Thu 05:10:52 PM -15.0600 -48.8780 137° Southeast 476 548 37,000  Level FlightAware ADS-B
Thu 05:11:55 PM -15.1660 -48.7770 137° Southeast 476 548 37,000  Level FlightAware ADS-B
Thu 05:12:35 PM -15.2300 -48.7160 137° Southeast 476 548 37,000  Level FlightAware ADS-B
Thu 05:13:37 PM -15.3300 -48.6200 137° Southeast 476 548 37,000  Level FlightAware ADS-B
Thu 05:14:14 PM -15.3900 -48.5620 137° Southeast 477 549 37,000  Level FlightAware ADS-B
Thu 05:14:59 PM -15.4640 -48.4920 138° Southeast 477 549 37,000  Level FlightAware ADS-B
Thu 05:15:41 PM -15.5310 -48.4270 137° Southeast 476 548 37,000  Level FlightAware ADS-B
Thu 05:16:26 PM -15.6050 -48.3560 137° Southeast 476 548 37,000  Level FlightAware ADS-B
Thu 05:17:06 PM -15.6700 -48.2930 137° Southeast 476 548 37,000  Level FlightAware ADS-B
Thu 05:17:48 PM -15.7380 -48.2280 137° Southeast 474 545 37,000  Level FlightAware ADS-B
Thu 05:18:30 PM -15.8050 -48.1630 137° Southeast 474 545 37,000  Level FlightAware ADS-B
Thu 05:19:12 PM -15.8720 -48.0980 137° Southeast 473 544 37,000  Level FlightAware ADS-B
Thu 05:19:48 PM -15.9310 -48.0420 138° Southeast 474 545 37,000  Level FlightAware ADS-B
Thu 05:20:38 PM -16.0100 -47.9660 137° Southeast 474 545 37,000  Level FlightAware ADS-B
Thu 05:21:14 PM -16.0670 -47.9100 137° Southeast 474 545 37,000  Level FlightAware ADS-B
Thu 05:22:02 PM -16.1460 -47.8340 137° Southeast 472 543 37,000  Level FlightAware ADS-B
Thu 05:22:44 PM -16.2120 -47.7690 137° Southeast 472 543 37,000  Level FlightAware ADS-B
Thu 05:23:22 PM -16.2730 -47.7110 138° Southeast 473 544 37,000  Level FlightAware ADS-B
Thu 05:24:08 PM -16.3280 -47.6570 137° Southeast 473 544 37,000  Level FlightAware ADS-B
Thu 05:24:48 PM -16.4110 -47.5760 137° Southeast 474 545 37,000  Level FlightAware ADS-B
Thu 05:25:12 PM -16.4490 -47.5390 137° Southeast 474 545 37,000  Level FlightAware ADS-B
Thu 05:25:56 PM -16.5190 -47.4710 137° Southeast 475 547 37,000  Level FlightAware ADS-B
Thu 05:26:39 PM -16.5870 -47.4040 137° Southeast 476 548 37,000  Level FlightAware ADS-B
Thu 05:27:15 PM -16.6390 -47.3520 136° Southeast 476 548 37,000  Level FlightAware ADS-B
Thu 05:27:58 PM -16.7020 -47.2890 136° Southeast 476 548 37,000  Level FlightAware ADS-B
Thu 05:29:00 PM -16.7990 -47.1930 137° Southeast 477 549 37,000  Level FlightAware ADS-B
Thu 05:29:36 PM -16.8480 -47.1440 136° Southeast 477 549 37,000  Level FlightAware ADS-B
Thu 05:30:34 PM -16.9260 -47.0650 136° Southeast 477 549 37,000  Level FlightAware ADS-B
Thu 05:31:21 PM -17.0400 -46.9560 138° Southeast 478 550 37,000  Level FlightAware ADS-B
Thu 05:31:55 PM -17.0960 -46.9010 137° Southeast 478 550 37,000  Level FlightAware ADS-B
Thu 05:32:45 PM -17.1630 -46.8330 136° Southeast 478 550 37,000  Level FlightAware ADS-B
Thu 05:33:25 PM -17.2390 -46.7590 137° Southeast 478 550 37,000  Level FlightAware ADS-B
Thu 05:33:49 PM -17.2790 -46.7190 136° Southeast 478 550 37,000  Level FlightAware ADS-B
Thu 05:34:37 PM -17.3560 -46.6420 136° Southeast 478 550 37,000  Level FlightAware ADS-B
Thu 05:35:20 PM -17.4140 -46.5840 136° Southeast 478 550 37,000  Level FlightAware ADS-B
Thu 05:36:01 PM -17.4690 -46.5280 136° Southeast 478 550 37,000  Level FlightAware ADS-B
Thu 05:36:40 PM -17.5450 -46.4530 137° Southeast 478 550 37,000  Level FlightAware ADS-B
Thu 05:38:17 PM -17.7080 -46.2900 136° Southeast 480 552 37,000  Level FlightAware ADS-B
Thu 05:39:10 PM -17.7780 -46.2190 136° Southeast 480 552 37,000  Level FlightAware ADS-B
Thu 05:39:58 PM -17.8430 -46.1530 136° Southeast 480 552 37,000  Level FlightAware ADS-B
Thu 05:40:35 PM -17.8940 -46.1020 136° Southeast 480 552 37,000  Level FlightAware ADS-B
Thu 05:41:29 PM -18.0090 -45.9880 137° Southeast 480 552 37,000  Level FlightAware ADS-B
Thu 05:42:17 PM -18.0920 -45.9040 136° Southeast 481 554 37,000  Level FlightAware ADS-B
Thu 05:42:57 PM -18.1540 -45.8410 136° Southeast 481 554 37,000  Level FlightAware ADS-B
Thu 05:43:42 PM -18.2130 -45.7810 136° Southeast 481 554 37,000  Level FlightAware ADS-B
Thu 05:44:22 PM -18.2920 -45.7020 136° Southeast 480 552 37,000  Level FlightAware ADS-B
Thu 05:45:02 PM -18.3570 -45.6370 137° Southeast 480 552 37,000 -122 Level FlightAware ADS-B
Thu 05:46:00 PM -18.4450 -45.5470 136° Southeast 476 548 36,800 -114 Descending FlightAware ADS-B
Thu 05:46:47 PM -18.5080 -45.4830 136° Southeast 476 548 36,800 -3,000 Level FlightAware ADS-B
Thu 05:47:22 PM -18.5790 -45.4110 136° Southeast 481 554 32,700 -4,611 Descending FlightAware ADS-B
Thu 05:48:22 PM -18.6760 -45.3120 136° Southeast 486 559 29,500 -2,880 Descending FlightAware ADS-B
Thu 05:49:02 PM -18.7370 -45.2470 135° Southeast 477 549 27,900 -2,475 Descending FlightAware ADS-B
Thu 05:49:42 PM -18.8000 -45.1790 134° Southeast 467 537 26,200 -2,411 Descending FlightAware ADS-B
Thu 05:50:49 PM -18.8950 -45.0740 134° Southeast 454 522 23,600 -2,400 Descending FlightAware ADS-B
Thu 05:51:32 PM -18.9600 -45.0030 134° Southeast 443 510 21,800 -2,386 Descending FlightAware ADS-B
Thu 05:52:12 PM -19.0160 -44.9430 135° Southeast 434 499 20,300 -2,274 Descending FlightAware ADS-B
Thu 05:53:07 PM -19.0910 -44.8600 134° Southeast 419 482 18,200 -2,274 Descending FlightAware ADS-B
Thu 05:53:47 PM -19.1450 -44.8020 135° Southeast 411 473 16,700 -2,250 Descending FlightAware ADS-B
Thu 05:54:27 PM -19.1980 -44.7430 134° Southeast 402 463 15,200 -1,765 Descending FlightAware ADS-B
Thu 05:55:12 PM -19.2510 -44.6840 134° Southeast 386 444 14,200 -955 Descending FlightAware ADS-B
Thu 05:55:55 PM -19.3000 -44.6290 133° Southeast 371 427 13,800 -1,457 Descending FlightAware ADS-B
Thu 05:56:22 PM -19.3280 -44.5950 131° Southeast 322 371 12,500 -1,463 Descending FlightAware ADS-B
Thu 05:57:17 PM -19.3510 -44.5160 107° East 297 342 11,800 -884 Descending FlightAware ADS-B
Thu 05:57:57 PM -19.3630 -44.4630 104° East 285 328 11,100 -1,267 Descending FlightAware ADS-B
Thu 05:58:47 PM -19.3790 -44.3930 104° East 280 322 9,900 -886 Descending FlightAware ADS-B
Thu 05:59:25 PM -19.3850 -44.3530 99° East 274 315 9,800 -97 Descending FlightAware ADS-B
Thu 05:59:49 PM -19.3890 -44.3260 99° East 274 315 9,800  Level FlightAware ADS-B
Thu 06:00:17 PM -19.3940 -44.2940 99° East 274 315 9,800  Level FlightAware ADS-B
Thu 06:00:53 PM -19.4000 -44.2540 99° East 274 315 9,800  Level FlightAware ADS-B
Thu 06:03:00 PM -19.5711 -44.0454 145° Southeast  Level Estimated
Thu 06:04:00 PM -19.6167 -43.9667 145° Southeast  Level FlightAware Approximate
Thu 06:05:00 PM -19.6338 -43.9689 145° Southeast  Level Estimated
Thu 06:06:00 PM -19.6338 -43.9689 145° Southeast  Level Estimated
Thu 06:07:00 PM -19.6338 -43.9689 145° Southeast  Level Estimated
Thu 06:08:00 PM -19.6338 -43.9689 145° Southeast  Level Estimated
Thu 06:09:00 PM -19.6338 -43.9689 145° Southeast  Level Estimated
Thu 06:10:00 PM -19.6338 -43.9689 145° Southeast  Level Estimated
Thu 06:11:00 PM -19.6338 -43.9689 145° Southeast  Level Estimated
Thu 06:12:00 PM -19.6338 -43.9689 145° Southeast  Level Estimated
Thu 06:13:00 PM -19.6338 -43.9689 145° Southeast  Level Estimated
Thu 06:14:00 PM -19.6338 -43.9689 145° Southeast  Level Estimated
Thu 06:15:00 PM -19.6338 -43.9689 145° Southeast  Level Estimated
Thu 06:16:00 PM -19.6338 -43.9689 145° Southeast  Level Estimated
Thu 06:17:00 PM -19.6338 -43.9689 145° Southeast  Level Estimated
Thu 06:18:00 PM -19.6338 -43.9689 145° Southeast  Level Estimated
Thu 06:19:00 PM -19.6338 -43.9689 145° Southeast  Level Estimated
Thu 06:20:00 PM -19.6338 -43.9689 145° Southeast  Level Estimated
Thu 06:21:00 PM -19.6338 -43.9689 145° Southeast  Level Estimated
Thu 06:22:00 PM -19.6338 -43.9689 145° Southeast  Level Estimated
Thu 06:23:00 PM -19.6338 -43.9689 145° Southeast  Level Estimated
Thu 06:24:00 PM -19.6338 -43.9689 145° Southeast  Level Estimated
Thu 06:25:00 PM -19.6338 -43.9689 145° Southeast  Level Estimated
Thu 06:26:00 PM -19.6338 -43.9689 145° Southeast  Level Estimated
Thu 06:27:00 PM -19.6338 -43.9689 145° Southeast  Level Estimated
Thu 06:28:00 PM -19.6338 -43.9689 145° Southeast  Level Estimated
Thu 06:29:00 PM -19.6338 -43.9689 145° Southeast  Level Estimated
Thu 06:30:00 PM -19.6338 -43.9689 145° Southeast  Level Estimated
Thu 06:31:00 PM -19.6338 -43.9689 145° Southeast  Level Estimated
Thu 06:32:00 PM -19.6338 -43.9689 145° Southeast  Level Estimated
Thu 06:33:00 PM -19.6338 -43.9689 145° Southeast  Level Estimated
Thu 06:34:00 PM -19.6338 -43.9689 145° Southeast  Level Estimated
Thu 06:35:00 PM -19.6338 -43.9689 145° Southeast  Level Estimated

Login

Don't have an account? Register now (free) for customized features, flight alerts, and more!